sensor_id;sensor_type;location;lat;lon;timestamp;temperature;humidity
48208;DHT22;33997;53.278;9.708;2022-08-19T00:00:08;18.50;89.20
48208;DHT22;33997;53.278;9.708;2022-08-19T00:02:35;18.50;89.50
48208;DHT22;33997;53.278;9.708;2022-08-19T00:05:01;18.50;89.40
48208;DHT22;33997;53.278;9.708;2022-08-19T00:07:26;18.50;89.40
48208;DHT22;33997;53.278;9.708;2022-08-19T00:09:52;18.50;89.70
48208;DHT22;33997;53.278;9.708;2022-08-19T00:12:17;18.50;89.70
48208;DHT22;33997;53.278;9.708;2022-08-19T00:14:43;18.50;89.80
48208;DHT22;33997;53.278;9.708;2022-08-19T00:17:09;18.40;89.90
48208;DHT22;33997;53.278;9.708;2022-08-19T00:19:36;18.40;89.90
48208;DHT22;33997;53.278;9.708;2022-08-19T00:22:02;18.50;90.00
48208;DHT22;33997;53.278;9.708;2022-08-19T00:24:28;18.40;89.80
48208;DHT22;33997;53.278;9.708;2022-08-19T00:26:55;18.40;90.00
48208;DHT22;33997;53.278;9.708;2022-08-19T00:29:22;18.40;90.00
48208;DHT22;33997;53.278;9.708;2022-08-19T00:31:49;18.50;90.00
48208;DHT22;33997;53.278;9.708;2022-08-19T00:34:15;18.40;89.90
48208;DHT22;33997;53.278;9.708;2022-08-19T00:36:41;18.30;90.10
48208;DHT22;33997;53.278;9.708;2022-08-19T00:39:07;18.20;90.40
48208;DHT22;33997;53.278;9.708;2022-08-19T00:41:33;18.30;90.60
48208;DHT22;33997;53.278;9.708;2022-08-19T00:46:29;18.30;90.40
48208;DHT22;33997;53.278;9.708;2022-08-19T00:48:56;18.30;90.30
48208;DHT22;33997;53.278;9.708;2022-08-19T00:51:24;18.30;90.30
48208;DHT22;33997;53.278;9.708;2022-08-19T00:53:52;18.20;90.60
48208;DHT22;33997;53.278;9.708;2022-08-19T00:56:19;18.30;90.50
48208;DHT22;33997;53.278;9.708;2022-08-19T00:58:45;18.30;90.30
48208;DHT22;33997;53.278;9.708;2022-08-19T01:01:10;18.20;90.50
48208;DHT22;33997;53.278;9.708;2022-08-19T01:03:36;18.20;90.60
48208;DHT22;33997;53.278;9.708;2022-08-19T01:06:01;18.30;90.60
48208;DHT22;33997;53.278;9.708;2022-08-19T01:08:28;18.30;90.30
48208;DHT22;33997;53.278;9.708;2022-08-19T01:10:58;18.20;90.50
48208;DHT22;33997;53.278;9.708;2022-08-19T01:13:25;18.30;90.50
48208;DHT22;33997;53.278;9.708;2022-08-19T01:15:58;18.20;90.40
48208;DHT22;33997;53.278;9.708;2022-08-19T01:18:26;18.20;90.50
48208;DHT22;33997;53.278;9.708;2022-08-19T01:20:55;18.20;90.50
48208;DHT22;33997;53.278;9.708;2022-08-19T01:23:21;18.10;90.60
48208;DHT22;33997;53.278;9.708;2022-08-19T01:26:07;18.10;90.80
48208;DHT22;33997;53.278;9.708;2022-08-19T01:28:33;18.10;90.70
48208;DHT22;33997;53.278;9.708;2022-08-19T01:30:58;18.20;90.70
48208;DHT22;33997;53.278;9.708;2022-08-19T01:33:24;18.10;90.70
48208;DHT22;33997;53.278;9.708;2022-08-19T01:35:49;18.10;90.60
48208;DHT22;33997;53.278;9.708;2022-08-19T01:38:25;18.00;90.80
48208;DHT22;33997;53.278;9.708;2022-08-19T01:40:51;18.00;90.80
48208;DHT22;33997;53.278;9.708;2022-08-19T01:43:17;18.00;90.80
48208;DHT22;33997;53.278;9.708;2022-08-19T01:45:44;18.00;91.00
48208;DHT22;33997;53.278;9.708;2022-08-19T01:48:10;18.00;90.90
48208;DHT22;33997;53.278;9.708;2022-08-19T01:50:36;18.10;90.80
48208;DHT22;33997;53.278;9.708;2022-08-19T01:53:05;18.00;90.90
48208;DHT22;33997;53.278;9.708;2022-08-19T01:55:31;18.00;90.80
48208;DHT22;33997;53.278;9.708;2022-08-19T01:57:59;18.00;90.90
48208;DHT22;33997;53.278;9.708;2022-08-19T02:00:28;18.00;90.90
48208;DHT22;33997;53.278;9.708;2022-08-19T02:02:55;18.00;90.90
48208;DHT22;33997;53.278;9.708;2022-08-19T02:05:21;18.00;90.70
48208;DHT22;33997;53.278;9.708;2022-08-19T02:07:47;18.00;90.90
48208;DHT22;33997;53.278;9.708;2022-08-19T02:10:16;17.90;91.10
48208;DHT22;33997;53.278;9.708;2022-08-19T02:12:42;17.90;91.30
48208;DHT22;33997;53.278;9.708;2022-08-19T02:15:08;17.90;91.20
48208;DHT22;33997;53.278;9.708;2022-08-19T02:17:34;17.90;91.20
48208;DHT22;33997;53.278;9.708;2022-08-19T02:20:00;18.00;91.20
48208;DHT22;33997;53.278;9.708;2022-08-19T02:22:26;17.80;91.30
48208;DHT22;33997;53.278;9.708;2022-08-19T02:24:53;17.90;91.40
48208;DHT22;33997;53.278;9.708;2022-08-19T02:27:19;17.80;91.40
48208;DHT22;33997;53.278;9.708;2022-08-19T02:29:46;17.90;91.50
48208;DHT22;33997;53.278;9.708;2022-08-19T02:32:12;17.80;91.50
48208;DHT22;33997;53.278;9.708;2022-08-19T02:34:39;17.80;91.80
48208;DHT22;33997;53.278;9.708;2022-08-19T02:37:04;17.80;91.60
48208;DHT22;33997;53.278;9.708;2022-08-19T02:39:30;17.70;91.80
48208;DHT22;33997;53.278;9.708;2022-08-19T02:41:55;17.80;91.80
48208;DHT22;33997;53.278;9.708;2022-08-19T02:44:21;17.80;91.80
48208;DHT22;33997;53.278;9.708;2022-08-19T02:46:47;17.80;91.80
48208;DHT22;33997;53.278;9.708;2022-08-19T02:49:13;17.80;91.80
48208;DHT22;33997;53.278;9.708;2022-08-19T02:51:43;17.80;91.80
48208;DHT22;33997;53.278;9.708;2022-08-19T02:54:11;17.80;91.70
48208;DHT22;33997;53.278;9.708;2022-08-19T02:56:39;17.80;91.90
48208;DHT22;33997;53.278;9.708;2022-08-19T02:59:06;17.70;92.00
48208;DHT22;33997;53.278;9.708;2022-08-19T03:01:37;17.70;92.00
48208;DHT22;33997;53.278;9.708;2022-08-19T03:04:05;17.80;91.90
48208;DHT22;33997;53.278;9.708;2022-08-19T03:06:31;17.80;91.80
48208;DHT22;33997;53.278;9.708;2022-08-19T03:08:57;17.80;91.80
48208;DHT22;33997;53.278;9.708;2022-08-19T03:11:26;17.80;91.70
48208;DHT22;33997;53.278;9.708;2022-08-19T03:13:53;17.80;91.90
48208;DHT22;33997;53.278;9.708;2022-08-19T03:16:20;17.80;92.00
48208;DHT22;33997;53.278;9.708;2022-08-19T03:18:46;17.80;91.80
48208;DHT22;33997;53.278;9.708;2022-08-19T03:21:20;17.80;91.90
48208;DHT22;33997;53.278;9.708;2022-08-19T03:23:46;17.90;91.80
48208;DHT22;33997;53.278;9.708;2022-08-19T03:26:12;17.80;91.70
48208;DHT22;33997;53.278;9.708;2022-08-19T03:28:39;17.90;91.80
48208;DHT22;33997;53.278;9.708;2022-08-19T03:31:09;17.90;91.70
48208;DHT22;33997;53.278;9.708;2022-08-19T03:33:35;17.90;91.70
48208;DHT22;33997;53.278;9.708;2022-08-19T03:36:07;17.90;91.70
48208;DHT22;33997;53.278;9.708;2022-08-19T03:38:48;17.90;91.70
48208;DHT22;33997;53.278;9.708;2022-08-19T03:41:18;17.90;91.70
48208;DHT22;33997;53.278;9.708;2022-08-19T03:43:44;17.90;91.80
48208;DHT22;33997;53.278;9.708;2022-08-19T03:46:19;17.90;91.70
48208;DHT22;33997;53.278;9.708;2022-08-19T03:48:50;17.90;91.70
48208;DHT22;33997;53.278;9.708;2022-08-19T03:51:31;17.90;91.80
48208;DHT22;33997;53.278;9.708;2022-08-19T03:54:00;17.80;92.00
48208;DHT22;33997;53.278;9.708;2022-08-19T03:56:26;17.80;92.20
48208;DHT22;33997;53.278;9.708;2022-08-19T03:58:54;17.70;92.40
48208;DHT22;33997;53.278;9.708;2022-08-19T04:01:22;17.60;92.80
48208;DHT22;33997;53.278;9.708;2022-08-19T04:03:48;17.70;92.80
48208;DHT22;33997;53.278;9.708;2022-08-19T04:06:22;17.60;93.10
48208;DHT22;33997;53.278;9.708;2022-08-19T04:08:49;17.60;92.90
48208;DHT22;33997;53.278;9.708;2022-08-19T04:11:23;17.50;93.00
48208;DHT22;33997;53.278;9.708;2022-08-19T04:13:50;17.50;93.40
48208;DHT22;33997;53.278;9.708;2022-08-19T04:16:17;17.50;93.60
48208;DHT22;33997;53.278;9.708;2022-08-19T04:18:43;17.40;93.70
48208;DHT22;33997;53.278;9.708;2022-08-19T04:21:20;17.40;93.80
48208;DHT22;33997;53.278;9.708;2022-08-19T04:23:46;17.30;93.90
48208;DHT22;33997;53.278;9.708;2022-08-19T04:26:17;17.40;94.20
48208;DHT22;33997;53.278;9.708;2022-08-19T04:28:44;17.40;94.30
48208;DHT22;33997;53.278;9.708;2022-08-19T04:31:15;17.40;94.30
48208;DHT22;33997;53.278;9.708;2022-08-19T04:33:41;17.40;94.00
48208;DHT22;33997;53.278;9.708;2022-08-19T04:36:07;17.40;94.10
48208;DHT22;33997;53.278;9.708;2022-08-19T04:38:33;17.30;94.20
48208;DHT22;33997;53.278;9.708;2022-08-19T04:40:59;17.30;94.30
48208;DHT22;33997;53.278;9.708;2022-08-19T04:43:44;17.40;94.00
48208;DHT22;33997;53.278;9.708;2022-08-19T04:46:13;17.40;94.00
48208;DHT22;33997;53.278;9.708;2022-08-19T04:48:39;17.40;93.90
48208;DHT22;33997;53.278;9.708;2022-08-19T04:51:10;17.40;93.80
48208;DHT22;33997;53.278;9.708;2022-08-19T04:53:37;17.40;93.90
48208;DHT22;33997;53.278;9.708;2022-08-19T04:56:15;17.50;93.70
48208;DHT22;33997;53.278;9.708;2022-08-19T04:58:43;17.50;93.60
48208;DHT22;33997;53.278;9.708;2022-08-19T05:01:12;17.50;93.40
48208;DHT22;33997;53.278;9.708;2022-08-19T05:03:38;17.50;93.20
48208;DHT22;33997;53.278;9.708;2022-08-19T05:06:09;17.50;93.20
48208;DHT22;33997;53.278;9.708;2022-08-19T05:08:36;17.50;93.20
48208;DHT22;33997;53.278;9.708;2022-08-19T05:11:08;17.50;92.80
48208;DHT22;33997;53.278;9.708;2022-08-19T05:13:34;17.60;92.70
48208;DHT22;33997;53.278;9.708;2022-08-19T05:16:00;17.60;92.90
48208;DHT22;33997;53.278;9.708;2022-08-19T05:18:26;17.60;92.60
48208;DHT22;33997;53.278;9.708;2022-08-19T05:21:12;17.60;92.50
48208;DHT22;33997;53.278;9.708;2022-08-19T05:23:57;17.70;92.40
48208;DHT22;33997;53.278;9.708;2022-08-19T05:26:23;17.70;92.20
48208;DHT22;33997;53.278;9.708;2022-08-19T05:28:51;17.80;91.70
48208;DHT22;33997;53.278;9.708;2022-08-19T05:31:17;17.80;91.80
48208;DHT22;33997;53.278;9.708;2022-08-19T05:33:42;17.80;91.60
48208;DHT22;33997;53.278;9.708;2022-08-19T05:36:08;17.70;91.80
48208;DHT22;33997;53.278;9.708;2022-08-19T05:38:34;17.70;91.80
48208;DHT22;33997;53.278;9.708;2022-08-19T05:41:10;17.70;92.00
48208;DHT22;33997;53.278;9.708;2022-08-19T05:43:37;17.70;92.20
48208;DHT22;33997;53.278;9.708;2022-08-19T05:46:05;17.90;91.90
48208;DHT22;33997;53.278;9.708;2022-08-19T05:48:34;17.80;91.90
48208;DHT22;33997;53.278;9.708;2022-08-19T05:51:05;17.90;91.80
48208;DHT22;33997;53.278;9.708;2022-08-19T05:53:32;18.00;91.80
48208;DHT22;33997;53.278;9.708;2022-08-19T05:56:07;18.00;91.50
48208;DHT22;33997;53.278;9.708;2022-08-19T05:58:34;17.80;91.60
48208;DHT22;33997;53.278;9.708;2022-08-19T06:00:59;17.80;91.50
48208;DHT22;33997;53.278;9.708;2022-08-19T06:03:30;18.00;91.80
48208;DHT22;33997;53.278;9.708;2022-08-19T06:05:57;18.00;91.50
48208;DHT22;33997;53.278;9.708;2022-08-19T06:08:25;17.80;91.50
48208;DHT22;33997;53.278;9.708;2022-08-19T06:10:50;17.80;91.70
48208;DHT22;33997;53.278;9.708;2022-08-19T06:13:16;17.90;92.10
48208;DHT22;33997;53.278;9.708;2022-08-19T06:15:42;18.00;91.90
48208;DHT22;33997;53.278;9.708;2022-08-19T06:18:09;17.90;91.80
48208;DHT22;33997;53.278;9.708;2022-08-19T06:20:34;17.90;91.80
48208;DHT22;33997;53.278;9.708;2022-08-19T06:23:00;17.90;91.80
48208;DHT22;33997;53.278;9.708;2022-08-19T06:25:26;17.80;92.00
48208;DHT22;33997;53.278;9.708;2022-08-19T06:27:51;17.80;92.10
48208;DHT22;33997;53.278;9.708;2022-08-19T06:30:17;17.90;92.10
48208;DHT22;33997;53.278;9.708;2022-08-19T06:32:42;18.00;92.00
48208;DHT22;33997;53.278;9.708;2022-08-19T06:35:08;17.90;92.10
48208;DHT22;33997;53.278;9.708;2022-08-19T06:37:33;18.00;91.90
48208;DHT22;33997;53.278;9.708;2022-08-19T06:39:59;18.00;92.00
48208;DHT22;33997;53.278;9.708;2022-08-19T06:42:25;18.00;92.00
48208;DHT22;33997;53.278;9.708;2022-08-19T06:44:50;18.00;92.00
48208;DHT22;33997;53.278;9.708;2022-08-19T06:47:19;18.00;91.70
48208;DHT22;33997;53.278;9.708;2022-08-19T06:49:45;18.10;91.70
48208;DHT22;33997;53.278;9.708;2022-08-19T06:52:11;18.10;91.80
48208;DHT22;33997;53.278;9.708;2022-08-19T06:54:41;18.00;91.30
48208;DHT22;33997;53.278;9.708;2022-08-19T06:57:08;18.00;91.60
48208;DHT22;33997;53.278;9.708;2022-08-19T06:59:38;17.90;91.70
48208;DHT22;33997;53.278;9.708;2022-08-19T07:02:05;17.90;91.80
48208;DHT22;33997;53.278;9.708;2022-08-19T07:04:33;17.80;91.80
48208;DHT22;33997;53.278;9.708;2022-08-19T07:07:05;17.80;91.70
48208;DHT22;33997;53.278;9.708;2022-08-19T07:09:32;17.70;91.90
48208;DHT22;33997;53.278;9.708;2022-08-19T07:11:58;17.80;92.20
48208;DHT22;33997;53.278;9.708;2022-08-19T07:14:26;17.80;92.20
48208;DHT22;33997;53.278;9.708;2022-08-19T07:16:53;17.70;92.60
48208;DHT22;33997;53.278;9.708;2022-08-19T07:19:21;17.80;92.70
48208;DHT22;33997;53.278;9.708;2022-08-19T07:21:50;17.80;92.70
48208;DHT22;33997;53.278;9.708;2022-08-19T07:24:18;17.80;92.90
48208;DHT22;33997;53.278;9.708;2022-08-19T07:26:44;17.80;93.00
48208;DHT22;33997;53.278;9.708;2022-08-19T07:29:11;17.60;93.10
48208;DHT22;33997;53.278;9.708;2022-08-19T07:31:36;17.70;93.50
48208;DHT22;33997;53.278;9.708;2022-08-19T07:34:09;17.70;93.60
48208;DHT22;33997;53.278;9.708;2022-08-19T07:36:38;17.70;93.80
48208;DHT22;33997;53.278;9.708;2022-08-19T07:39:08;17.70;93.90
48208;DHT22;33997;53.278;9.708;2022-08-19T07:41:35;17.60;94.00
48208;DHT22;33997;53.278;9.708;2022-08-19T07:44:03;17.60;94.30
48208;DHT22;33997;53.278;9.708;2022-08-19T07:46:38;17.50;94.50
48208;DHT22;33997;53.278;9.708;2022-08-19T07:49:06;17.50;94.70
48208;DHT22;33997;53.278;9.708;2022-08-19T07:51:32;17.60;95.00
48208;DHT22;33997;53.278;9.708;2022-08-19T07:53:58;17.70;94.90
48208;DHT22;33997;53.278;9.708;2022-08-19T07:56:24;17.60;94.80
48208;DHT22;33997;53.278;9.708;2022-08-19T07:58:51;17.60;95.20
48208;DHT22;33997;53.278;9.708;2022-08-19T08:01:23;17.50;95.00
48208;DHT22;33997;53.278;9.708;2022-08-19T08:03:51;17.60;95.40
48208;DHT22;33997;53.278;9.708;2022-08-19T08:06:36;17.70;95.60
48208;DHT22;33997;53.278;9.708;2022-08-19T08:09:25;17.70;95.40
48208;DHT22;33997;53.278;9.708;2022-08-19T08:12:00;17.80;95.70
48208;DHT22;33997;53.278;9.708;2022-08-19T08:14:30;17.80;95.50
48208;DHT22;33997;53.278;9.708;2022-08-19T08:16:56;17.80;95.40
48208;DHT22;33997;53.278;9.708;2022-08-19T08:19:23;18.00;95.50
48208;DHT22;33997;53.278;9.708;2022-08-19T08:21:50;18.00;94.40
48208;DHT22;33997;53.278;9.708;2022-08-19T08:24:16;18.10;94.40
48208;DHT22;33997;53.278;9.708;2022-08-19T08:26:42;18.10;93.90
48208;DHT22;33997;53.278;9.708;2022-08-19T08:29:12;18.00;93.90
48208;DHT22;33997;53.278;9.708;2022-08-19T08:31:39;18.10;94.00
48208;DHT22;33997;53.278;9.708;2022-08-19T08:34:06;18.20;94.00
48208;DHT22;33997;53.278;9.708;2022-08-19T08:36:32;18.30;93.90
48208;DHT22;33997;53.278;9.708;2022-08-19T08:38:59;18.10;93.00
48208;DHT22;33997;53.278;9.708;2022-08-19T08:41:58;18.20;93.30
48208;DHT22;33997;53.278;9.708;2022-08-19T08:47:16;18.30;92.80
48208;DHT22;33997;53.278;9.708;2022-08-19T08:50:05;18.50;92.80
48208;DHT22;33997;53.278;9.708;2022-08-19T08:52:39;18.50;92.60
48208;DHT22;33997;53.278;9.708;2022-08-19T08:55:11;18.50;92.60
48208;DHT22;33997;53.278;9.708;2022-08-19T08:57:52;18.50;92.80
48208;DHT22;33997;53.278;9.708;2022-08-19T09:00:24;18.50;92.50
48208;DHT22;33997;53.278;9.708;2022-08-19T09:02:52;18.40;92.70
48208;DHT22;33997;53.278;9.708;2022-08-19T09:05:19;18.40;92.80
48208;DHT22;33997;53.278;9.708;2022-08-19T09:08:05;18.50;93.00
48208;DHT22;33997;53.278;9.708;2022-08-19T09:10:38;18.50;92.80
48208;DHT22;33997;53.278;9.708;2022-08-19T09:16:20;18.70;92.20
48208;DHT22;33997;53.278;9.708;2022-08-19T09:18:51;18.80;91.80
48208;DHT22;33997;53.278;9.708;2022-08-19T09:21:21;18.70;91.50
48208;DHT22;33997;53.278;9.708;2022-08-19T09:23:51;18.80;91.80
48208;DHT22;33997;53.278;9.708;2022-08-19T09:26:19;18.90;91.60
48208;DHT22;33997;53.278;9.708;2022-08-19T09:28:47;19.10;91.50
48208;DHT22;33997;53.278;9.708;2022-08-19T09:31:15;19.20;90.70
48208;DHT22;33997;53.278;9.708;2022-08-19T09:33:41;19.40;90.30
48208;DHT22;33997;53.278;9.708;2022-08-19T09:36:11;19.50;89.60
48208;DHT22;33997;53.278;9.708;2022-08-19T09:38:38;19.50;88.70
48208;DHT22;33997;53.278;9.708;2022-08-19T09:41:09;19.60;89.20
48208;DHT22;33997;53.278;9.708;2022-08-19T09:43:36;19.80;89.20
48208;DHT22;33997;53.278;9.708;2022-08-19T09:46:03;19.80;88.40
48208;DHT22;33997;53.278;9.708;2022-08-19T09:48:35;19.80;88.40
48208;DHT22;33997;53.278;9.708;2022-08-19T09:51:21;19.90;87.60
48208;DHT22;33997;53.278;9.708;2022-08-19T09:53:48;19.90;87.50
48208;DHT22;33997;53.278;9.708;2022-08-19T09:56:20;20.00;87.40
48208;DHT22;33997;53.278;9.708;2022-08-19T09:58:47;19.90;87.40
48208;DHT22;33997;53.278;9.708;2022-08-19T10:01:19;20.00;86.90
48208;DHT22;33997;53.278;9.708;2022-08-19T10:03:49;20.20;87.00
48208;DHT22;33997;53.278;9.708;2022-08-19T10:06:15;20.40;86.30
48208;DHT22;33997;53.278;9.708;2022-08-19T10:08:41;20.50;85.10
48208;DHT22;33997;53.278;9.708;2022-08-19T10:11:08;20.80;85.70
48208;DHT22;33997;53.278;9.708;2022-08-19T10:13:34;20.80;84.80
48208;DHT22;33997;53.278;9.708;2022-08-19T10:16:16;20.80;84.40
48208;DHT22;33997;53.278;9.708;2022-08-19T10:18:44;20.90;84.30
48208;DHT22;33997;53.278;9.708;2022-08-19T10:21:11;21.00;83.80
48208;DHT22;33997;53.278;9.708;2022-08-19T10:23:39;21.00;84.30
48208;DHT22;33997;53.278;9.708;2022-08-19T10:26:06;21.20;83.30
48208;DHT22;33997;53.278;9.708;2022-08-19T10:28:34;21.00;83.70
48208;DHT22;33997;53.278;9.708;2022-08-19T10:31:07;21.30;83.10
48208;DHT22;33997;53.278;9.708;2022-08-19T10:33:34;21.40;83.00
48208;DHT22;33997;53.278;9.708;2022-08-19T10:36:07;21.50;83.20
48208;DHT22;33997;53.278;9.708;2022-08-19T10:38:33;21.50;81.70
48208;DHT22;33997;53.278;9.708;2022-08-19T10:41:17;21.50;82.20
48208;DHT22;33997;53.278;9.708;2022-08-19T10:43:43;21.60;81.80
48208;DHT22;33997;53.278;9.708;2022-08-19T10:46:13;21.50;81.10
48208;DHT22;33997;53.278;9.708;2022-08-19T10:48:40;21.40;82.20
48208;DHT22;33997;53.278;9.708;2022-08-19T10:51:05;21.40;82.60
48208;DHT22;33997;53.278;9.708;2022-08-19T10:53:51;21.50;81.80
48208;DHT22;33997;53.278;9.708;2022-08-19T10:56:17;21.50;81.90
48208;DHT22;33997;53.278;9.708;2022-08-19T10:59:02;21.60;80.70
48208;DHT22;33997;53.278;9.708;2022-08-19T11:01:29;21.70;80.80
48208;DHT22;33997;53.278;9.708;2022-08-19T11:03:56;22.10;79.90
48208;DHT22;33997;53.278;9.708;2022-08-19T11:06:23;22.50;79.20
48208;DHT22;33997;53.278;9.708;2022-08-19T11:08:50;22.70;77.50
48208;DHT22;33997;53.278;9.708;2022-08-19T11:11:16;22.90;77.60
48208;DHT22;33997;53.278;9.708;2022-08-19T11:13:42;22.90;76.80
48208;DHT22;33997;53.278;9.708;2022-08-19T11:16:13;23.20;76.60
48208;DHT22;33997;53.278;9.708;2022-08-19T11:18:42;23.50;76.30
48208;DHT22;33997;53.278;9.708;2022-08-19T11:21:10;23.50;74.90
48208;DHT22;33997;53.278;9.708;2022-08-19T11:23:37;23.90;74.70
48208;DHT22;33997;53.278;9.708;2022-08-19T11:26:02;24.10;73.80
48208;DHT22;33997;53.278;9.708;2022-08-19T11:28:28;24.20;72.80
48208;DHT22;33997;53.278;9.708;2022-08-19T11:30:53;24.30;73.40
48208;DHT22;33997;53.278;9.708;2022-08-19T11:33:19;24.20;72.20
48208;DHT22;33997;53.278;9.708;2022-08-19T11:35:44;24.10;73.00
48208;DHT22;33997;53.278;9.708;2022-08-19T11:38:10;24.00;73.70
48208;DHT22;33997;53.278;9.708;2022-08-19T11:40:36;23.40;74.60
48208;DHT22;33997;53.278;9.708;2022-08-19T11:43:03;23.30;75.70
48208;DHT22;33997;53.278;9.708;2022-08-19T11:45:29;23.10;77.00
48208;DHT22;33997;53.278;9.708;2022-08-19T11:47:55;22.70;78.10
48208;DHT22;33997;53.278;9.708;2022-08-19T11:50:21;22.90;78.00
48208;DHT22;33997;53.278;9.708;2022-08-19T11:52:48;22.90;78.00
48208;DHT22;33997;53.278;9.708;2022-08-19T11:55:15;22.80;78.00
48208;DHT22;33997;53.278;9.708;2022-08-19T11:57:40;22.90;77.40
48208;DHT22;33997;53.278;9.708;2022-08-19T12:00:07;22.90;77.30
48208;DHT22;33997;53.278;9.708;2022-08-19T12:02:34;23.30;76.90
48208;DHT22;33997;53.278;9.708;2022-08-19T12:05:00;23.70;74.70
48208;DHT22;33997;53.278;9.708;2022-08-19T12:07:28;23.90;74.50
48208;DHT22;33997;53.278;9.708;2022-08-19T12:09:54;24.20;73.20
48208;DHT22;33997;53.278;9.708;2022-08-19T12:12:19;24.20;73.60
48208;DHT22;33997;53.278;9.708;2022-08-19T12:14:45;24.20;72.70
48208;DHT22;33997;53.278;9.708;2022-08-19T12:17:12;24.20;72.70
48208;DHT22;33997;53.278;9.708;2022-08-19T12:19:38;24.40;72.90
48208;DHT22;33997;53.278;9.708;2022-08-19T12:22:04;24.20;72.90
48208;DHT22;33997;53.278;9.708;2022-08-19T12:24:32;24.90;73.10
48208;DHT22;33997;53.278;9.708;2022-08-19T12:26:58;25.00;69.20
48208;DHT22;33997;53.278;9.708;2022-08-19T12:29:27;25.30;69.80
48208;DHT22;33997;53.278;9.708;2022-08-19T12:31:55;25.50;67.30
48208;DHT22;33997;53.278;9.708;2022-08-19T12:34:27;25.90;66.60
48208;DHT22;33997;53.278;9.708;2022-08-19T12:36:58;26.00;65.90
48208;DHT22;33997;53.278;9.708;2022-08-19T12:39:26;26.00;66.30
48208;DHT22;33997;53.278;9.708;2022-08-19T12:41:51;25.40;66.90
48208;DHT22;33997;53.278;9.708;2022-08-19T12:44:17;24.80;69.10
48208;DHT22;33997;53.278;9.708;2022-08-19T12:46:43;25.00;69.40
48208;DHT22;33997;53.278;9.708;2022-08-19T12:49:08;24.70;68.80
48208;DHT22;33997;53.278;9.708;2022-08-19T12:51:35;24.50;69.60
48208;DHT22;33997;53.278;9.708;2022-08-19T12:54:02;24.00;72.00
48208;DHT22;33997;53.278;9.708;2022-08-19T12:56:28;24.00;72.30
48208;DHT22;33997;53.278;9.708;2022-08-19T12:58:54;24.20;72.30
48208;DHT22;33997;53.278;9.708;2022-08-19T13:01:20;24.40;71.70
48208;DHT22;33997;53.278;9.708;2022-08-19T13:03:46;24.50;70.70
48208;DHT22;33997;53.278;9.708;2022-08-19T13:06:12;25.50;69.40
48208;DHT22;33997;53.278;9.708;2022-08-19T13:08:38;25.40;68.80
48208;DHT22;33997;53.278;9.708;2022-08-19T13:11:12;26.40;67.10
48208;DHT22;33997;53.278;9.708;2022-08-19T13:13:42;26.30;64.80
48208;DHT22;33997;53.278;9.708;2022-08-19T13:16:10;26.80;63.90
48208;DHT22;33997;53.278;9.708;2022-08-19T13:18:36;26.50;64.00
48208;DHT22;33997;53.278;9.708;2022-08-19T13:21:04;27.20;62.60
48208;DHT22;33997;53.278;9.708;2022-08-19T13:23:30;27.30;61.30
48208;DHT22;33997;53.278;9.708;2022-08-19T13:26:00;26.90;61.60
48208;DHT22;33997;53.278;9.708;2022-08-19T13:28:27;26.10;63.40
48208;DHT22;33997;53.278;9.708;2022-08-19T13:31:15;25.70;65.00
48208;DHT22;33997;53.278;9.708;2022-08-19T13:34:00;25.70;64.90
48208;DHT22;33997;53.278;9.708;2022-08-19T13:36:26;25.90;65.00
48208;DHT22;33997;53.278;9.708;2022-08-19T13:38:51;25.60;64.80
48208;DHT22;33997;53.278;9.708;2022-08-19T13:41:18;25.90;64.30
48208;DHT22;33997;53.278;9.708;2022-08-19T13:43:44;26.00;65.20
48208;DHT22;33997;53.278;9.708;2022-08-19T13:46:11;26.50;65.30
48208;DHT22;33997;53.278;9.708;2022-08-19T13:48:42;27.40;63.60
48208;DHT22;33997;53.278;9.708;2022-08-19T13:51:08;28.50;60.90
48208;DHT22;33997;53.278;9.708;2022-08-19T13:53:36;28.80;55.90
48208;DHT22;33997;53.278;9.708;2022-08-19T13:56:07;28.80;57.00
48208;DHT22;33997;53.278;9.708;2022-08-19T13:58:36;28.00;58.40
48208;DHT22;33997;53.278;9.708;2022-08-19T14:01:03;27.50;60.30
48208;DHT22;33997;53.278;9.708;2022-08-19T14:03:29;27.50;61.10
48208;DHT22;33997;53.278;9.708;2022-08-19T14:05:55;27.70;59.70
48208;DHT22;33997;53.278;9.708;2022-08-19T14:08:20;28.80;55.60
48208;DHT22;33997;53.278;9.708;2022-08-19T14:10:46;29.50;54.10
48208;DHT22;33997;53.278;9.708;2022-08-19T14:13:18;30.20;53.90
48208;DHT22;33997;53.278;9.708;2022-08-19T14:15:45;30.60;50.80
48208;DHT22;33997;53.278;9.708;2022-08-19T14:18:11;30.30;51.80
48208;DHT22;33997;53.278;9.708;2022-08-19T14:20:37;29.50;53.70
48208;DHT22;33997;53.278;9.708;2022-08-19T14:23:03;29.00;54.30
48208;DHT22;33997;53.278;9.708;2022-08-19T14:25:30;28.90;53.80
48208;DHT22;33997;53.278;9.708;2022-08-19T14:27:56;29.70;53.30
48208;DHT22;33997;53.278;9.708;2022-08-19T14:30:25;30.70;51.20
48208;DHT22;33997;53.278;9.708;2022-08-19T14:32:54;30.50;50.80
48208;DHT22;33997;53.278;9.708;2022-08-19T14:35:20;30.00;51.30
48208;DHT22;33997;53.278;9.708;2022-08-19T14:37:47;30.20;51.80
48208;DHT22;33997;53.278;9.708;2022-08-19T14:40:16;30.40;50.00
48208;DHT22;33997;53.278;9.708;2022-08-19T14:42:42;30.40;53.00
48208;DHT22;33997;53.278;9.708;2022-08-19T14:45:08;30.40;49.60
48208;DHT22;33997;53.278;9.708;2022-08-19T14:47:34;30.00;51.40
48208;DHT22;33997;53.278;9.708;2022-08-19T14:50:00;30.20;52.60
48208;DHT22;33997;53.278;9.708;2022-08-19T14:52:25;30.00;52.70
48208;DHT22;33997;53.278;9.708;2022-08-19T14:54:51;30.70;51.60
48208;DHT22;33997;53.278;9.708;2022-08-19T14:57:17;31.10;49.10
48208;DHT22;33997;53.278;9.708;2022-08-19T14:59:43;31.10;48.30
48208;DHT22;33997;53.278;9.708;2022-08-19T15:02:09;31.00;47.80
48208;DHT22;33997;53.278;9.708;2022-08-19T15:04:35;32.00;49.00
48208;DHT22;33997;53.278;9.708;2022-08-19T15:07:00;32.10;48.30
48208;DHT22;33997;53.278;9.708;2022-08-19T15:09:30;30.80;49.70
48208;DHT22;33997;53.278;9.708;2022-08-19T15:11:55;30.80;49.10
48208;DHT22;33997;53.278;9.708;2022-08-19T15:14:23;30.90;48.70
48208;DHT22;33997;53.278;9.708;2022-08-19T15:16:48;31.30;49.10
48208;DHT22;33997;53.278;9.708;2022-08-19T15:19:14;31.50;46.50
48208;DHT22;33997;53.278;9.708;2022-08-19T15:21:39;32.30;46.10
48208;DHT22;33997;53.278;9.708;2022-08-19T15:24:05;31.90;46.10
48208;DHT22;33997;53.278;9.708;2022-08-19T15:26:31;31.70;45.80
48208;DHT22;33997;53.278;9.708;2022-08-19T15:28:58;31.60;47.80
48208;DHT22;33997;53.278;9.708;2022-08-19T15:31:25;31.30;48.60
48208;DHT22;33997;53.278;9.708;2022-08-19T15:33:50;31.40;47.60
48208;DHT22;33997;53.278;9.708;2022-08-19T15:36:16;31.20;47.60
48208;DHT22;33997;53.278;9.708;2022-08-19T15:38:42;31.80;47.30
48208;DHT22;33997;53.278;9.708;2022-08-19T15:41:18;32.40;45.80
48208;DHT22;33997;53.278;9.708;2022-08-19T15:43:58;32.50;45.60